sensor_id;sensor_type;location;lat;lon;timestamp;pressure;altitude;pressure_sealevel;temperature;humidity
10948;BME280;5526;42.070;24.752;2023-02-21T00:01:28;99227.19;;;11.07;37.57
10948;BME280;5526;42.070;24.752;2023-02-21T00:04:12;99217.19;;;11.45;36.46
10948;BME280;5526;42.070;24.752;2023-02-21T00:06:56;99212.91;;;11.71;35.64
10948;BME280;5526;42.070;24.752;2023-02-21T00:09:42;99218.41;;;11.64;36.01
10948;BME280;5526;42.070;24.752;2023-02-21T00:12:26;99228.22;;;10.79;38.43
10948;BME280;5526;42.070;24.752;2023-02-21T00:15:11;99221.13;;;10.53;38.78
10948;BME280;5526;42.070;24.752;2023-02-21T00:17:55;99227.53;;;10.62;38.95
10948;BME280;5526;42.070;24.752;2023-02-21T00:20:40;99217.31;;;10.66;38.75
10948;BME280;5526;42.070;24.752;2023-02-21T00:23:24;99212.69;;;10.78;37.93
10948;BME280;5526;42.070;24.752;2023-02-21T00:26:10;99209.88;;;11.16;36.82
10948;BME280;5526;42.070;24.752;2023-02-21T00:28:54;99211.63;;;11.37;36.22
10948;BME280;5526;42.070;24.752;2023-02-21T00:31:38;99195.25;;;11.66;36.08
10948;BME280;5526;42.070;24.752;2023-02-21T00:34:23;99177.91;;;11.85;35.82
10948;BME280;5526;42.070;24.752;2023-02-21T00:37:07;99194.69;;;12.16;35.84
10948;BME280;5526;42.070;24.752;2023-02-21T00:39:52;99183.91;;;12.27;35.56
10948;BME280;5526;42.070;24.752;2023-02-21T00:42:37;99180.78;;;12.40;35.65
10948;BME280;5526;42.070;24.752;2023-02-21T00:45:22;99182.63;;;12.50;35.00
10948;BME280;5526;42.070;24.752;2023-02-21T00:48:06;99176.84;;;12.58;34.89
10948;BME280;5526;42.070;24.752;2023-02-21T00:50:50;99177.94;;;12.62;34.61
10948;BME280;5526;42.070;24.752;2023-02-21T00:53:35;99173.97;;;12.69;34.46
10948;BME280;5526;42.070;24.752;2023-02-21T00:56:19;99161.56;;;12.75;34.48
10948;BME280;5526;42.070;24.752;2023-02-21T00:59:05;99160.50;;;12.81;34.16
10948;BME280;5526;42.070;24.752;2023-02-21T01:01:49;99151.50;;;12.77;34.33
10948;BME280;5526;42.070;24.752;2023-02-21T01:04:34;99140.69;;;12.78;33.97
10948;BME280;5526;42.070;24.752;2023-02-21T01:07:18;99144.66;;;12.81;33.86
10948;BME280;5526;42.070;24.752;2023-02-21T01:10:03;99117.19;;;12.82;33.70
10948;BME280;5526;42.070;24.752;2023-02-21T01:12:47;99125.38;;;12.95;33.63
10948;BME280;5526;42.070;24.752;2023-02-21T01:15:33;99124.59;;;13.10;33.44
10948;BME280;5526;42.070;24.752;2023-02-21T01:18:17;99128.81;;;13.11;33.47
10948;BME280;5526;42.070;24.752;2023-02-21T01:21:02;99124.56;;;13.20;33.74
10948;BME280;5526;42.070;24.752;2023-02-21T01:23:46;99127.50;;;13.24;33.92
10948;BME280;5526;42.070;24.752;2023-02-21T01:26:31;99118.53;;;13.20;33.90
10948;BME280;5526;42.070;24.752;2023-02-21T01:29:15;99115.06;;;13.24;33.78
10948;BME280;5526;42.070;24.752;2023-02-21T01:32:01;99107.13;;;13.24;33.74
10948;BME280;5526;42.070;24.752;2023-02-21T01:34:46;99100.03;;;13.20;33.64
10948;BME280;5526;42.070;24.752;2023-02-21T01:37:30;99101.59;;;13.21;33.92
10948;BME280;5526;42.070;24.752;2023-02-21T01:40:15;99097.09;;;13.16;33.60
10948;BME280;5526;42.070;24.752;2023-02-21T01:42:59;99093.66;;;13.21;33.89
10948;BME280;5526;42.070;24.752;2023-02-21T01:45:48;99088.09;;;13.27;33.74
10948;BME280;5526;42.070;24.752;2023-02-21T01:48:35;99088.91;;;13.28;33.72
10948;BME280;5526;42.070;24.752;2023-02-21T01:51:23;99087.84;;;13.24;33.60
10948;BME280;5526;42.070;24.752;2023-02-21T01:54:09;99096.84;;;13.28;33.85
10948;BME280;5526;42.070;24.752;2023-02-21T01:56:55;99089.63;;;13.43;33.82
10948;BME280;5526;42.070;24.752;2023-02-21T01:59:41;99097.00;;;13.51;33.59
10948;BME280;5526;42.070;24.752;2023-02-21T02:02:29;99086.97;;;13.53;33.63
10948;BME280;5526;42.070;24.752;2023-02-21T02:05:17;99089.09;;;13.56;33.58
10948;BME280;5526;42.070;24.752;2023-02-21T02:08:01;99080.63;;;13.54;33.52
10948;BME280;5526;42.070;24.752;2023-02-21T02:10:48;99068.97;;;13.55;33.54
10948;BME280;5526;42.070;24.752;2023-02-21T02:13:46;99068.16;;;13.60;33.38
10948;BME280;5526;42.070;24.752;2023-02-21T02:16:25;99069.44;;;13.67;33.57
10948;BME280;5526;42.070;24.752;2023-02-21T02:22:31;99064.13;;;13.77;33.58
10948;BME280;5526;42.070;24.752;2023-02-21T02:25:17;99059.34;;;13.84;33.53
10948;BME280;5526;42.070;24.752;2023-02-21T02:27:53;99064.06;;;13.87;33.49
10948;BME280;5526;42.070;24.752;2023-02-21T02:30:49;99046.88;;;13.90;33.54
10948;BME280;5526;42.070;24.752;2023-02-21T02:33:52;99044.72;;;13.92;33.69
10948;BME280;5526;42.070;24.752;2023-02-21T02:36:24;99052.13;;;13.95;34.05
10948;BME280;5526;42.070;24.752;2023-02-21T02:38:59;99058.47;;;13.99;33.90
10948;BME280;5526;42.070;24.752;2023-02-21T02:41:36;99046.03;;;13.94;34.14
10948;BME280;5526;42.070;24.752;2023-02-21T02:44:13;99037.59;;;13.87;34.04
10948;BME280;5526;42.070;24.752;2023-02-21T02:46:42;99039.75;;;13.85;34.28
10948;BME280;5526;42.070;24.752;2023-02-21T02:49:14;99044.50;;;13.83;34.37
10948;BME280;5526;42.070;24.752;2023-02-21T02:51:45;99043.28;;;13.71;34.13
10948;BME280;5526;42.070;24.752;2023-02-21T02:54:12;99033.69;;;12.96;35.08
10948;BME280;5526;42.070;24.752;2023-02-21T02:56:39;99028.19;;;12.77;35.37
10948;BME280;5526;42.070;24.752;2023-02-21T02:59:08;99027.16;;;12.63;35.53
10948;BME280;5526;42.070;24.752;2023-02-21T03:01:58;99024.47;;;12.98;35.16
10948;BME280;5526;42.070;24.752;2023-02-21T03:04:43;99020.72;;;13.15;34.94
10948;BME280;5526;42.070;24.752;2023-02-21T03:07:17;99020.03;;;12.49;35.94
10948;BME280;5526;42.070;24.752;2023-02-21T03:09:59;99025.78;;;11.76;37.19
10948;BME280;5526;42.070;24.752;2023-02-21T03:12:34;99026.63;;;11.30;38.38
10948;BME280;5526;42.070;24.752;2023-02-21T03:15:13;99025.41;;;11.01;38.62
10948;BME280;5526;42.070;24.752;2023-02-21T03:17:46;99021.66;;;10.87;38.85
10948;BME280;5526;42.070;24.752;2023-02-21T03:20:14;99031.09;;;10.83;39.12
10948;BME280;5526;42.070;24.752;2023-02-21T03:22:44;99030.56;;;10.81;39.34
10948;BME280;5526;42.070;24.752;2023-02-21T03:25:13;99014.38;;;10.62;39.49
10948;BME280;5526;42.070;24.752;2023-02-21T03:27:43;99034.47;;;10.42;40.35
10948;BME280;5526;42.070;24.752;2023-02-21T03:30:11;99025.09;;;10.19;40.90
10948;BME280;5526;42.070;24.752;2023-02-21T03:32:41;99025.63;;;10.21;41.06
10948;BME280;5526;42.070;24.752;2023-02-21T03:35:11;99039.72;;;10.42;40.65
10948;BME280;5526;42.070;24.752;2023-02-21T03:37:40;99017.13;;;10.77;41.02
10948;BME280;5526;42.070;24.752;2023-02-21T03:40:11;99034.06;;;11.48;39.18
10948;BME280;5526;42.070;24.752;2023-02-21T03:42:39;99038.44;;;11.94;38.63
10948;BME280;5526;42.070;24.752;2023-02-21T03:45:07;99040.09;;;12.45;37.73
10948;BME280;5526;42.070;24.752;2023-02-21T03:47:34;99043.78;;;12.74;37.06
10948;BME280;5526;42.070;24.752;2023-02-21T03:50:01;99043.78;;;12.99;36.83
10948;BME280;5526;42.070;24.752;2023-02-21T03:52:29;99042.72;;;12.45;37.42
10948;BME280;5526;42.070;24.752;2023-02-21T03:54:56;99049.56;;;12.21;37.78
10948;BME280;5526;42.070;24.752;2023-02-21T03:57:25;99042.19;;;12.18;37.87
10948;BME280;5526;42.070;24.752;2023-02-21T03:59:52;99050.63;;;12.10;37.69
10948;BME280;5526;42.070;24.752;2023-02-21T04:02:19;99053.47;;;11.88;38.20
10948;BME280;5526;42.070;24.752;2023-02-21T04:04:46;99049.34;;;11.46;39.00
10948;BME280;5526;42.070;24.752;2023-02-21T04:07:14;99049.84;;;11.43;39.39
10948;BME280;5526;42.070;24.752;2023-02-21T04:09:41;99049.50;;;11.24;39.21
10948;BME280;5526;42.070;24.752;2023-02-21T04:12:09;99048.63;;;11.09;39.95
10948;BME280;5526;42.070;24.752;2023-02-21T04:14:37;99030.16;;;10.99;40.04
10948;BME280;5526;42.070;24.752;2023-02-21T04:17:04;99035.09;;;10.90;40.09
10948;BME280;5526;42.070;24.752;2023-02-21T04:19:32;99046.44;;;10.96;40.29
10948;BME280;5526;42.070;24.752;2023-02-21T04:21:59;99050.00;;;10.75;41.04
10948;BME280;5526;42.070;24.752;2023-02-21T04:24:27;99042.03;;;10.70;40.99
10948;BME280;5526;42.070;24.752;2023-02-21T04:26:54;99050.00;;;10.75;40.88
10948;BME280;5526;42.070;24.752;2023-02-21T04:29:21;99049.88;;;10.60;41.17
10948;BME280;5526;42.070;24.752;2023-02-21T04:31:49;99051.91;;;10.48;41.50
10948;BME280;5526;42.070;24.752;2023-02-21T04:34:17;99062.63;;;10.41;40.76
10948;BME280;5526;42.070;24.752;2023-02-21T04:36:43;99059.78;;;10.48;41.11
10948;BME280;5526;42.070;24.752;2023-02-21T04:39:11;99057.16;;;10.48;40.93
10948;BME280;5526;42.070;24.752;2023-02-21T04:41:38;99060.31;;;10.50;40.54
10948;BME280;5526;42.070;24.752;2023-02-21T04:44:05;99063.41;;;10.42;40.85
10948;BME280;5526;42.070;24.752;2023-02-21T04:46:32;99052.41;;;10.45;40.68
10948;BME280;5526;42.070;24.752;2023-02-21T04:49:01;99066.34;;;10.45;40.82
10948;BME280;5526;42.070;24.752;2023-02-21T04:51:28;99064.91;;;10.33;41.65
10948;BME280;5526;42.070;24.752;2023-02-21T04:53:56;99079.16;;;10.37;41.32
10948;BME280;5526;42.070;24.752;2023-02-21T04:56:24;99082.13;;;10.19;41.76
10948;BME280;5526;42.070;24.752;2023-02-21T04:58:52;99054.63;;;10.05;41.82
10948;BME280;5526;42.070;24.752;2023-02-21T05:01:19;99067.22;;;10.03;41.30
10948;BME280;5526;42.070;24.752;2023-02-21T05:03:47;99066.75;;;10.06;41.62
10948;BME280;5526;42.070;24.752;2023-02-21T05:06:20;99066.03;;;10.10;42.09
10948;BME280;5526;42.070;24.752;2023-02-21T05:08:47;99067.13;;;9.93;41.64
10948;BME280;5526;42.070;24.752;2023-02-21T05:11:15;99052.25;;;9.77;41.73
10948;BME280;5526;42.070;24.752;2023-02-21T05:13:43;99063.16;;;9.90;41.78
10948;BME280;5526;42.070;24.752;2023-02-21T05:16:10;99061.25;;;9.86;42.47
10948;BME280;5526;42.070;24.752;2023-02-21T05:18:37;99061.25;;;9.86;42.02
10948;BME280;5526;42.070;24.752;2023-02-21T05:21:05;99072.03;;;9.63;42.67
10948;BME280;5526;42.070;24.752;2023-02-21T05:23:34;99070.13;;;9.58;42.75
10948;BME280;5526;42.070;24.752;2023-02-21T05:26:04;99078.44;;;9.50;43.45
10948;BME280;5526;42.070;24.752;2023-02-21T05:28:32;99071.19;;;9.57;42.91
10948;BME280;5526;42.070;24.752;2023-02-21T05:31:00;99084.06;;;9.59;42.68
10948;BME280;5526;42.070;24.752;2023-02-21T05:33:27;99084.03;;;9.54;43.86
10948;BME280;5526;42.070;24.752;2023-02-21T05:35:54;99089.47;;;9.69;43.41
10948;BME280;5526;42.070;24.752;2023-02-21T05:38:23;99076.31;;;9.69;43.72
10948;BME280;5526;42.070;24.752;2023-02-21T05:40:52;99079.97;;;9.68;43.80
10948;BME280;5526;42.070;24.752;2023-02-21T05:43:19;99084.88;;;9.59;44.34
10948;BME280;5526;42.070;24.752;2023-02-21T05:45:46;99074.72;;;9.68;43.91
10948;BME280;5526;42.070;24.752;2023-02-21T05:48:14;99080.88;;;9.78;43.70
10948;BME280;5526;42.070;24.752;2023-02-21T05:50:41;99091.38;;;10.00;43.81
10948;BME280;5526;42.070;24.752;2023-02-21T05:53:09;99090.47;;;10.11;42.91
10948;BME280;5526;42.070;24.752;2023-02-21T05:55:36;99093.69;;;10.18;42.74
10948;BME280;5526;42.070;24.752;2023-02-21T05:58:04;99099.34;;;10.31;42.63
10948;BME280;5526;42.070;24.752;2023-02-21T06:00:31;99101.66;;;10.49;42.64
10948;BME280;5526;42.070;24.752;2023-02-21T06:02:58;99097.31;;;10.70;42.40
10948;BME280;5526;42.070;24.752;2023-02-21T06:05:26;99089.59;;;10.90;41.53
10948;BME280;5526;42.070;24.752;2023-02-21T06:07:53;99084.41;;;11.05;41.75
10948;BME280;5526;42.070;24.752;2023-02-21T06:10:20;99099.00;;;11.22;41.22
10948;BME280;5526;42.070;24.752;2023-02-21T06:12:47;99076.34;;;11.21;40.88
10948;BME280;5526;42.070;24.752;2023-02-21T06:15:15;99084.13;;;11.43;40.99
10948;BME280;5526;42.070;24.752;2023-02-21T06:17:42;99097.97;;;11.75;40.87
10948;BME280;5526;42.070;24.752;2023-02-21T06:20:12;99088.91;;;12.17;40.23
10948;BME280;5526;42.070;24.752;2023-02-21T06:22:41;99087.34;;;12.41;39.95
10948;BME280;5526;42.070;24.752;2023-02-21T06:25:09;99083.13;;;12.70;39.36
10948;BME280;5526;42.070;24.752;2023-02-21T06:27:37;99082.59;;;12.93;39.04
10948;BME280;5526;42.070;24.752;2023-02-21T06:30:05;99084.13;;;13.35;38.63
10948;BME280;5526;42.070;24.752;2023-02-21T06:32:33;99079.56;;;13.60;38.55
10948;BME280;5526;42.070;24.752;2023-02-21T06:35:00;99079.94;;;13.87;38.08
10948;BME280;5526;42.070;24.752;2023-02-21T06:37:27;99071.06;;;14.12;37.50
10948;BME280;5526;42.070;24.752;2023-02-21T06:39:54;99067.56;;;14.31;37.16
10948;BME280;5526;42.070;24.752;2023-02-21T06:42:21;99078.53;;;14.48;37.09
10948;BME280;5526;42.070;24.752;2023-02-21T06:44:49;99082.09;;;14.67;36.78
10948;BME280;5526;42.070;24.752;2023-02-21T06:47:16;99086.41;;;14.25;37.16
10948;BME280;5526;42.070;24.752;2023-02-21T06:49:45;99075.03;;;14.14;37.12
10948;BME280;5526;42.070;24.752;2023-02-21T06:52:12;99092.88;;;13.94;37.51
10948;BME280;5526;42.070;24.752;2023-02-21T06:54:39;99087.25;;;13.52;38.31
10948;BME280;5526;42.070;24.752;2023-02-21T06:57:06;99097.06;;;13.31;38.68
10948;BME280;5526;42.070;24.752;2023-02-21T06:59:33;99082.31;;;13.15;39.18
10948;BME280;5526;42.070;24.752;2023-02-21T07:02:00;99086.03;;;12.99;39.42
10948;BME280;5526;42.070;24.752;2023-02-21T07:04:29;99078.34;;;12.82;39.90
10948;BME280;5526;42.070;24.752;2023-02-21T07:06:57;99083.66;;;12.92;40.23
10948;BME280;5526;42.070;24.752;2023-02-21T07:09:24;99087.63;;;12.90;40.48
10948;BME280;5526;42.070;24.752;2023-02-21T07:11:51;99079.41;;;13.27;39.74
10948;BME280;5526;42.070;24.752;2023-02-21T07:14:18;99086.75;;;13.30;40.28
10948;BME280;5526;42.070;24.752;2023-02-21T07:16:45;99076.53;;;12.98;40.26
10948;BME280;5526;42.070;24.752;2023-02-21T07:19:12;99078.59;;;13.16;40.70
10948;BME280;5526;42.070;24.752;2023-02-21T07:21:42;99079.63;;;13.30;40.44
10948;BME280;5526;42.070;24.752;2023-02-21T07:24:10;99070.59;;;13.46;40.32
10948;BME280;5526;42.070;24.752;2023-02-21T07:26:37;99073.22;;;13.56;39.99
10948;BME280;5526;42.070;24.752;2023-02-21T07:29:05;99071.97;;;13.97;39.29
10948;BME280;5526;42.070;24.752;2023-02-21T07:31:32;99064.53;;;14.43;38.34
10948;BME280;5526;42.070;24.752;2023-02-21T07:33:59;99062.13;;;14.80;37.04
10948;BME280;5526;42.070;24.752;2023-02-21T07:36:26;99055.84;;;14.99;37.21
10948;BME280;5526;42.070;24.752;2023-02-21T07:38:53;99056.53;;;15.10;36.66
10948;BME280;5526;42.070;24.752;2023-02-21T07:41:22;99059.41;;;15.42;36.12
10948;BME280;5526;42.070;24.752;2023-02-21T07:43:49;99064.69;;;15.65;34.83
10948;BME280;5526;42.070;24.752;2023-02-21T07:46:16;99058.56;;;15.88;34.16
10948;BME280;5526;42.070;24.752;2023-02-21T07:48:44;99060.94;;;16.08;34.01
10948;BME280;5526;42.070;24.752;2023-02-21T07:51:11;99050.34;;;16.40;33.35
10948;BME280;5526;42.070;24.752;2023-02-21T07:53:39;99048.44;;;16.78;32.64
10948;BME280;5526;42.070;24.752;2023-02-21T07:56:06;99025.75;;;17.13;32.37
10948;BME280;5526;42.070;24.752;2023-02-21T07:58:35;99032.47;;;17.51;31.66
10948;BME280;5526;42.070;24.752;2023-02-21T08:01:03;99053.94;;;17.68;30.86
10948;BME280;5526;42.070;24.752;2023-02-21T08:03:30;99041.38;;;17.82;31.04
10948;BME280;5526;42.070;24.752;2023-02-21T08:05:57;99038.66;;;18.09;30.21
10948;BME280;5526;42.070;24.752;2023-02-21T08:08:25;99037.09;;;18.08;30.28
10948;BME280;5526;42.070;24.752;2023-02-21T08:10:52;99031.19;;;18.33;30.26
10948;BME280;5526;42.070;24.752;2023-02-21T08:13:19;99039.28;;;18.63;30.00
10948;BME280;5526;42.070;24.752;2023-02-21T08:15:47;99042.84;;;18.81;29.40
10948;BME280;5526;42.070;24.752;2023-02-21T08:18:15;99027.22;;;18.96;29.53
10948;BME280;5526;42.070;24.752;2023-02-21T08:20:45;99024.41;;;19.01;29.40
10948;BME280;5526;42.070;24.752;2023-02-21T08:23:12;99025.22;;;18.71;29.33
10948;BME280;5526;42.070;24.752;2023-02-21T08:25:39;99019.50;;;18.64;29.61
10948;BME280;5526;42.070;24.752;2023-02-21T08:28:06;99014.66;;;18.66;29.23
10948;BME280;5526;42.070;24.752;2023-02-21T08:30:33;99012.13;;;18.61;28.88
10948;BME280;5526;42.070;24.752;2023-02-21T08:33:02;99015.44;;;18.67;29.16
10948;BME280;5526;42.070;24.752;2023-02-21T08:35:29;99012.41;;;18.82;29.13
10948;BME280;5526;42.070;24.752;2023-02-21T08:37:56;98999.16;;;18.68;28.84
10948;BME280;5526;42.070;24.752;2023-02-21T08:40:28;99008.25;;;18.67;28.87
10948;BME280;5526;42.070;24.752;2023-02-21T08:42:57;98996.16;;;19.00;28.58
10948;BME280;5526;42.070;24.752;2023-02-21T08:45:25;98989.41;;;19.42;28.44
10948;BME280;5526;42.070;24.752;2023-02-21T08:47:54;98994.47;;;19.52;27.86
10948;BME280;5526;42.070;24.752;2023-02-21T08:50:23;98994.75;;;19.42;27.82
10948;BME280;5526;42.070;24.752;2023-02-21T08:52:51;98983.00;;;19.51;27.39
10948;BME280;5526;42.070;24.752;2023-02-21T08:55:20;98984.22;;;19.37;27.72
10948;BME280;5526;42.070;24.752;2023-02-21T08:57:48;98978.31;;;19.57;27.69
10948;BME280;5526;42.070;24.752;2023-02-21T09:00:16;98982.03;;;19.39;27.81
10948;BME280;5526;42.070;24.752;2023-02-21T09:02:43;98979.09;;;19.57;28.24
10948;BME280;5526;42.070;24.752;2023-02-21T09:05:13;98980.19;;;19.82;27.28
10948;BME280;5526;42.070;24.752;2023-02-21T09:07:42;98978.19;;;20.13;26.20
10948;BME280;5526;42.070;24.752;2023-02-21T09:10:10;98969.22;;;19.92;26.41
10948;BME280;5526;42.070;24.752;2023-02-21T09:12:37;98971.13;;;20.17;26.02
10948;BME280;5526;42.070;24.752;2023-02-21T09:15:05;98968.44;;;20.17;25.86
10948;BME280;5526;42.070;24.752;2023-02-21T09:17:33;98964.81;;;20.30;25.62
10948;BME280;5526;42.070;24.752;2023-02-21T09:20:01;98975.22;;;20.31;25.77
10948;BME280;5526;42.070;24.752;2023-02-21T09:22:31;98971.91;;;20.26;25.76
10948;BME280;5526;42.070;24.752;2023-02-21T09:25:00;98964.59;;;20.60;25.88
10948;BME280;5526;42.070;24.752;2023-02-21T09:27:27;98955.78;;;20.60;25.80
10948;BME280;5526;42.070;24.752;2023-02-21T09:30:05;98968.56;;;20.46;26.20
10948;BME280;5526;42.070;24.752;2023-02-21T09:32:33;98968.94;;;20.19;26.47
10948;BME280;5526;42.070;24.752;2023-02-21T09:35:01;98956.94;;;20.42;26.12
10948;BME280;5526;42.070;24.752;2023-02-21T09:37:28;98957.72;;;20.42;26.31
10948;BME280;5526;42.070;24.752;2023-02-21T09:39:57;98965.78;;;20.17;26.55
10948;BME280;5526;42.070;24.752;2023-02-21T09:42:28;98953.03;;;20.39;26.59
10948;BME280;5526;42.070;24.752;2023-02-21T09:44:56;98946.78;;;20.73;26.21
10948;BME280;5526;42.070;24.752;2023-02-21T09:47:27;98951.22;;;20.69;26.32
10948;BME280;5526;42.070;24.752;2023-02-21T09:49:59;98948.78;;;20.30;26.32
10948;BME280;5526;42.070;24.752;2023-02-21T09:52:31;98944.81;;;20.53;26.46
10948;BME280;5526;42.070;24.752;2023-02-21T09:55:02;98942.19;;;20.82;25.96
10948;BME280;5526;42.070;24.752;2023-02-21T09:57:35;98935.66;;;20.62;26.22
10948;BME280;5526;42.070;24.752;2023-02-21T10:00:10;98933.19;;;20.49;26.31
10948;BME280;5526;42.070;24.752;2023-02-21T10:02:51;98939.22;;;20.20;26.55
10948;BME280;5526;42.070;24.752;2023-02-21T10:05:29;98933.53;;;20.94;26.04
10948;BME280;5526;42.070;24.752;2023-02-21T10:08:04;98929.41;;;20.96;25.12
10948;BME280;5526;42.070;24.752;2023-02-21T10:10:39;98925.44;;;21.02;24.68
10948;BME280;5526;42.070;24.752;2023-02-21T10:13:21;98919.41;;;21.14;24.92
10948;BME280;5526;42.070;24.752;2023-02-21T10:15:53;98924.00;;;21.34;25.05
10948;BME280;5526;42.070;24.752;2023-02-21T10:18:29;98914.59;;;21.48;24.38
10948;BME280;5526;42.070;24.752;2023-02-21T10:21:00;98902.31;;;21.27;24.75
10948;BME280;5526;42.070;24.752;2023-02-21T10:23:34;98898.84;;;21.26;24.51
10948;BME280;5526;42.070;24.752;2023-02-21T10:26:04;98898.66;;;21.52;24.11
10948;BME280;5526;42.070;24.752;2023-02-21T10:28:35;98894.88;;;21.73;24.14
10948;BME280;5526;42.070;24.752;2023-02-21T10:31:06;98888.53;;;21.57;23.95
10948;BME280;5526;42.070;24.752;2023-02-21T10:33:36;98881.50;;;21.73;23.82
10948;BME280;5526;42.070;24.752;2023-02-21T10:36:10;98884.44;;;21.39;24.32
10948;BME280;5526;42.070;24.752;2023-02-21T10:38:39;98879.53;;;21.41;24.49
10948;BME280;5526;42.070;24.752;2023-02-21T10:41:09;98878.75;;;21.82;24.03
10948;BME280;5526;42.070;24.752;2023-02-21T10:43:41;98866.31;;;22.10;23.37
10948;BME280;5526;42.070;24.752;2023-02-21T10:46:15;98851.47;;;22.12;23.37
10948;BME280;5526;42.070;24.752;2023-02-21T10:48:47;98858.88;;;22.27;23.46
10948;BME280;5526;42.070;24.752;2023-02-21T10:51:28;98834.13;;;21.98;23.23
10948;BME280;5526;42.070;24.752;2023-02-21T10:54:16;98853.75;;;22.22;23.03
10948;BME280;5526;42.070;24.752;2023-02-21T10:56:44;98858.22;;;22.42;23.57
10948;BME280;5526;42.070;24.752;2023-02-21T10:59:19;98852.69;;;22.59;23.31
10948;BME280;5526;42.070;24.752;2023-02-21T11:01:47;98854.03;;;22.53;23.15
10948;BME280;5526;42.070;24.752;2023-02-21T11:04:27;98837.38;;;22.60;23.09
10948;BME280;5526;42.070;24.752;2023-02-21T11:06:56;98836.59;;;22.59;23.39
10948;BME280;5526;42.070;24.752;2023-02-21T11:09:32;98839.72;;;22.61;23.11
10948;BME280;5526;42.070;24.752;2023-02-21T11:12:01;98831.03;;;22.64;23.34
10948;BME280;5526;42.070;24.752;2023-02-21T11:14:31;98827.59;;;22.19;23.22
10948;BME280;5526;42.070;24.752;2023-02-21T11:17:13;98820.19;;;22.04;23.02
10948;BME280;5526;42.070;24.752;2023-02-21T11:19:46;98815.88;;;22.36;22.78
10948;BME280;5526;42.070;24.752;2023-02-21T11:22:14;98808.09;;;22.55;23.04
10948;BME280;5526;42.070;24.752;2023-02-21T11:24:51;98815.56;;;22.85;22.29
10948;BME280;5526;42.070;24.752;2023-02-21T11:27:19;98808.47;;;23.05;22.66
10948;BME280;5526;42.070;24.752;2023-02-21T11:29:49;98798.06;;;23.15;22.49
10948;BME280;5526;42.070;24.752;2023-02-21T11:32:25;98794.97;;;22.89;22.49
10948;BME280;5526;42.070;24.752;2023-02-21T11:35:20;98794.78;;;22.70;22.59
10948;BME280;5526;42.070;24.752;2023-02-21T11:37:50;98792.22;;;22.50;22.80
10948;BME280;5526;42.070;24.752;2023-02-21T11:40:30;98783.59;;;22.80;22.37
10948;BME280;5526;42.070;24.752;2023-02-21T11:43:11;98765.50;;;23.05;22.17
10948;BME280;5526;42.070;24.752;2023-02-21T11:45:43;98768.06;;;23.25;22.16
10948;BME280;5526;42.070;24.752;2023-02-21T11:48:15;98768.72;;;22.83;22.32
10948;BME280;5526;42.070;24.752;2023-02-21T11:50:48;98759.50;;;22.56;22.40
10948;BME280;5526;42.070;24.752;2023-02-21T11:53:24;98753.59;;;22.90;22.84
10948;BME280;5526;42.070;24.752;2023-02-21T11:55:58;98741.91;;;23.10;22.30
10948;BME280;5526;42.070;24.752;2023-02-21T11:58:33;98738.16;;;23.97;21.39
10948;BME280;5526;42.070;24.752;2023-02-21T12:01:07;98748.63;;;23.44;21.92
10948;BME280;5526;42.070;24.752;2023-02-21T12:06:41;98736.75;;;22.78;22.11
10948;BME280;5526;42.070;24.752;2023-02-21T12:09:14;98726.56;;;22.71;22.54
10948;BME280;5526;42.070;24.752;2023-02-21T12:11:51;98715.56;;;23.00;22.57
10948;BME280;5526;42.070;24.752;2023-02-21T12:14:31;98704.97;;;23.19;21.85
10948;BME280;5526;42.070;24.752;2023-02-21T12:17:11;98690.25;;;23.01;21.89
10948;BME280;5526;42.070;24.752;2023-02-21T12:19:52;98693.75;;;23.02;21.95
10948;BME280;5526;42.070;24.752;2023-02-21T12:22:33;98675.78;;;23.18;21.84
10948;BME280;5526;42.070;24.752;2023-02-21T12:25:12;98685.97;;;23.40;21.70
10948;BME280;5526;42.070;24.752;2023-02-21T12:27:47;98678.19;;;23.66;21.83
10948;BME280;5526;42.070;24.752;2023-02-21T12:30:43;98668.41;;;23.73;21.79
10948;BME280;5526;42.070;24.752;2023-02-21T12:33:27;98668.47;;;23.61;21.82
10948;BME280;5526;42.070;24.752;2023-02-21T12:39:13;98672.47;;;23.67;21.84
10948;BME280;5526;42.070;24.752;2023-02-21T12:42:15;98667.28;;;23.59;21.74
10948;BME280;5526;42.070;24.752;2023-02-21T12:44:55;98674.22;;;23.60;21.89
10948;BME280;5526;42.070;24.752;2023-02-21T12:47:30;98671.69;;;23.51;21.84
10948;BME280;5526;42.070;24.752;2023-02-21T12:50:05;98651.56;;;23.76;21.51
10948;BME280;5526;42.070;24.752;2023-02-21T12:52:38;98660.19;;;23.66;21.59
10948;BME280;5526;42.070;24.752;2023-02-21T12:55:15;98651.69;;;23.80;21.86
10948;BME280;5526;42.070;24.752;2023-02-21T12:57:48;98658.59;;;23.34;21.06
10948;BME280;5526;42.070;24.752;2023-02-21T13:00:20;98658.16;;;23.48;20.39
10948;BME280;5526;42.070;24.752;2023-02-21T13:02:57;98652.44;;;23.49;20.07
10948;BME280;5526;42.070;24.752;2023-02-21T13:05:35;98650.59;;;23.22;20.65
10948;BME280;5526;42.070;24.752;2023-02-21T13:08:09;98645.94;;;23.35;20.80
10948;BME280;5526;42.070;24.752;2023-02-21T13:10:48;98639.59;;;24.20;19.74
10948;BME280;5526;42.070;24.752;2023-02-21T13:13:20;98628.63;;;23.63;20.19
10948;BME280;5526;42.070;24.752;2023-02-21T13:15:49;98626.38;;;23.34;20.22
10948;BME280;5526;42.070;24.752;2023-02-21T13:18:20;98633.38;;;23.23;20.30
10948;BME280;5526;42.070;24.752;2023-02-21T13:20:54;98639.88;;;23.10;20.01
10948;BME280;5526;42.070;24.752;2023-02-21T13:23:41;98650.19;;;22.81;20.53
10948;BME280;5526;42.070;24.752;2023-02-21T13:29:13;98625.31;;;22.96;20.38
10948;BME280;5526;42.070;24.752;2023-02-21T13:31:43;98632.22;;;22.97;20.38
10948;BME280;5526;42.070;24.752;2023-02-21T13:34:12;98662.13;;;22.83;20.46
10948;BME280;5526;42.070;24.752;2023-02-21T13:36:46;98615.34;;;22.96;20.71
10948;BME280;5526;42.070;24.752;2023-02-21T13:39:16;98642.38;;;22.76;20.50
10948;BME280;5526;42.070;24.752;2023-02-21T13:41:48;98632.59;;;22.95;20.65
10948;BME280;5526;42.070;24.752;2023-02-21T13:44:23;98646.50;;;22.85;20.80